sensor_id;sensor_type;location;lat;lon;timestamp;temperature;humidity
16301;DHT22;8258;51.020;4.248;2023-03-01T00:01:56;1.00;99.90
16301;DHT22;8258;51.020;4.248;2023-03-01T00:04:22;1.00;99.90
16301;DHT22;8258;51.020;4.248;2023-03-01T00:06:49;0.90;99.90
16301;DHT22;8258;51.020;4.248;2023-03-01T00:09:17;1.00;99.90
16301;DHT22;8258;51.020;4.248;2023-03-01T00:11:44;1.00;99.90
16301;DHT22;8258;51.020;4.248;2023-03-01T00:14:11;1.00;99.90
16301;DHT22;8258;51.020;4.248;2023-03-01T00:16:41;0.90;99.90
16301;DHT22;8258;51.020;4.248;2023-03-01T00:19:12;0.90;99.90
16301;DHT22;8258;51.020;4.248;2023-03-01T00:21:39;0.90;99.90
16301;DHT22;8258;51.020;4.248;2023-03-01T00:24:07;0.90;99.90
16301;DHT22;8258;51.020;4.248;2023-03-01T00:26:34;0.80;99.90
16301;DHT22;8258;51.020;4.248;2023-03-01T00:29:01;0.80;99.90
16301;DHT22;8258;51.020;4.248;2023-03-01T00:31:30;0.90;99.90
16301;DHT22;8258;51.020;4.248;2023-03-01T00:34:00;0.80;99.90
16301;DHT22;8258;51.020;4.248;2023-03-01T00:36:30;0.80;99.90
16301;DHT22;8258;51.020;4.248;2023-03-01T00:38:57;0.80;99.90
16301;DHT22;8258;51.020;4.248;2023-03-01T00:41:24;0.70;99.90
16301;DHT22;8258;51.020;4.248;2023-03-01T00:43:53;0.70;99.90
16301;DHT22;8258;51.020;4.248;2023-03-01T00:46:22;0.70;99.90
16301;DHT22;8258;51.020;4.248;2023-03-01T00:48:49;0.50;99.90
16301;DHT22;8258;51.020;4.248;2023-03-01T00:51:20;0.50;99.90
16301;DHT22;8258;51.020;4.248;2023-03-01T00:53:49;0.50;99.90
16301;DHT22;8258;51.020;4.248;2023-03-01T00:56:23;0.60;99.90
16301;DHT22;8258;51.020;4.248;2023-03-01T00:58:50;0.50;99.90
16301;DHT22;8258;51.020;4.248;2023-03-01T01:01:20;0.60;99.90
16301;DHT22;8258;51.020;4.248;2023-03-01T01:03:48;0.60;99.90
16301;DHT22;8258;51.020;4.248;2023-03-01T01:06:19;0.60;99.90
16301;DHT22;8258;51.020;4.248;2023-03-01T01:08:47;0.50;99.90
16301;DHT22;8258;51.020;4.248;2023-03-01T01:11:15;0.50;99.90
16301;DHT22;8258;51.020;4.248;2023-03-01T01:13:48;0.40;99.90
16301;DHT22;8258;51.020;4.248;2023-03-01T01:16:17;0.40;99.90
16301;DHT22;8258;51.020;4.248;2023-03-01T01:18:44;0.40;99.90
16301;DHT22;8258;51.020;4.248;2023-03-01T01:21:16;0.30;99.90
16301;DHT22;8258;51.020;4.248;2023-03-01T01:23:45;0.30;99.90
16301;DHT22;8258;51.020;4.248;2023-03-01T01:26:17;0.30;99.90
16301;DHT22;8258;51.020;4.248;2023-03-01T01:28:45;0.40;99.90
16301;DHT22;8258;51.020;4.248;2023-03-01T01:31:12;0.30;99.90
16301;DHT22;8258;51.020;4.248;2023-03-01T01:33:39;0.20;99.90
16301;DHT22;8258;51.020;4.248;2023-03-01T01:36:07;0.20;99.90
16301;DHT22;8258;51.020;4.248;2023-03-01T01:38:36;0.20;99.90
16301;DHT22;8258;51.020;4.248;2023-03-01T01:41:05;0.20;99.90
16301;DHT22;8258;51.020;4.248;2023-03-01T01:43:34;0.30;99.90
16301;DHT22;8258;51.020;4.248;2023-03-01T01:46:03;0.20;99.90
16301;DHT22;8258;51.020;4.248;2023-03-01T01:48:36;0.10;99.90
16301;DHT22;8258;51.020;4.248;2023-03-01T01:51:09;0.10;99.90
16301;DHT22;8258;51.020;4.248;2023-03-01T01:53:38;0.10;99.90
16301;DHT22;8258;51.020;4.248;2023-03-01T01:56:09;0.10;99.90
16301;DHT22;8258;51.020;4.248;2023-03-01T01:58:38;0.10;99.90
16301;DHT22;8258;51.020;4.248;2023-03-01T02:01:06;0.10;99.90
16301;DHT22;8258;51.020;4.248;2023-03-01T02:03:37;0.10;99.90
16301;DHT22;8258;51.020;4.248;2023-03-01T02:06:12;0.10;99.90
16301;DHT22;8258;51.020;4.248;2023-03-01T02:08:42;0.10;99.90
16301;DHT22;8258;51.020;4.248;2023-03-01T02:11:11;0.00;99.90
16301;DHT22;8258;51.020;4.248;2023-03-01T02:13:40;0.00;99.90
16301;DHT22;8258;51.020;4.248;2023-03-01T02:16:09;0.00;99.90
16301;DHT22;8258;51.020;4.248;2023-03-01T02:18:37;0.00;99.90
16301;DHT22;8258;51.020;4.248;2023-03-01T02:21:11;0.00;99.90
16301;DHT22;8258;51.020;4.248;2023-03-01T02:23:41;0.00;99.90
16301;DHT22;8258;51.020;4.248;2023-03-01T02:26:17;0.00;99.90
16301;DHT22;8258;51.020;4.248;2023-03-01T02:28:47;0.00;99.90
16301;DHT22;8258;51.020;4.248;2023-03-01T02:31:16;0.00;99.90
16301;DHT22;8258;51.020;4.248;2023-03-01T02:34:01;0.00;99.90
16301;DHT22;8258;51.020;4.248;2023-03-01T02:36:31;-0.10;99.90
16301;DHT22;8258;51.020;4.248;2023-03-01T02:39:02;-0.20;99.90
16301;DHT22;8258;51.020;4.248;2023-03-01T02:41:33;-0.30;99.90
16301;DHT22;8258;51.020;4.248;2023-03-01T02:44:03;-0.20;99.90
16301;DHT22;8258;51.020;4.248;2023-03-01T02:46:31;-0.20;99.90
16301;DHT22;8258;51.020;4.248;2023-03-01T02:48:59;-0.40;99.90
16301;DHT22;8258;51.020;4.248;2023-03-01T02:51:43;-0.30;99.90
16301;DHT22;8258;51.020;4.248;2023-03-01T02:54:18;-0.40;99.90
16301;DHT22;8258;51.020;4.248;2023-03-01T02:56:47;-0.40;99.90
16301;DHT22;8258;51.020;4.248;2023-03-01T02:59:18;-0.50;99.90
16301;DHT22;8258;51.020;4.248;2023-03-01T03:01:45;-0.50;99.90
16301;DHT22;8258;51.020;4.248;2023-03-01T03:04:15;-0.60;99.90
16301;DHT22;8258;51.020;4.248;2023-03-01T03:06:43;-0.60;99.90
16301;DHT22;8258;51.020;4.248;2023-03-01T03:09:11;-0.60;99.90
16301;DHT22;8258;51.020;4.248;2023-03-01T03:11:39;-0.50;99.90
16301;DHT22;8258;51.020;4.248;2023-03-01T03:14:07;-0.60;99.90
16301;DHT22;8258;51.020;4.248;2023-03-01T03:16:40;-0.60;99.90
16301;DHT22;8258;51.020;4.248;2023-03-01T03:19:07;-0.60;99.90
16301;DHT22;8258;51.020;4.248;2023-03-01T03:21:35;-0.60;99.90
16301;DHT22;8258;51.020;4.248;2023-03-01T03:24:02;-0.60;99.90
16301;DHT22;8258;51.020;4.248;2023-03-01T03:26:29;-0.60;99.90
16301;DHT22;8258;51.020;4.248;2023-03-01T03:28:56;-0.60;99.90
16301;DHT22;8258;51.020;4.248;2023-03-01T03:31:23;-0.70;99.90
16301;DHT22;8258;51.020;4.248;2023-03-01T03:33:52;-0.70;99.90
16301;DHT22;8258;51.020;4.248;2023-03-01T03:36:21;-0.70;99.90
16301;DHT22;8258;51.020;4.248;2023-03-01T03:38:48;-0.60;99.90
16301;DHT22;8258;51.020;4.248;2023-03-01T03:41:16;-0.70;99.90
16301;DHT22;8258;51.020;4.248;2023-03-01T03:43:43;-0.80;99.90
16301;DHT22;8258;51.020;4.248;2023-03-01T03:46:11;-0.80;99.90
16301;DHT22;8258;51.020;4.248;2023-03-01T03:48:41;-0.80;99.90
16301;DHT22;8258;51.020;4.248;2023-03-01T03:51:12;-0.80;99.90
16301;DHT22;8258;51.020;4.248;2023-03-01T03:53:39;-0.70;99.90
16301;DHT22;8258;51.020;4.248;2023-03-01T03:56:07;-0.80;99.90
16301;DHT22;8258;51.020;4.248;2023-03-01T03:58:34;-0.80;99.90
16301;DHT22;8258;51.020;4.248;2023-03-01T04:01:01;-0.80;99.90
16301;DHT22;8258;51.020;4.248;2023-03-01T04:03:30;-0.80;99.90
16301;DHT22;8258;51.020;4.248;2023-03-01T04:05:58;-0.80;99.90
16301;DHT22;8258;51.020;4.248;2023-03-01T04:08:27;-0.70;99.90
16301;DHT22;8258;51.020;4.248;2023-03-01T04:10:59;-0.70;99.90
16301;DHT22;8258;51.020;4.248;2023-03-01T04:13:47;-0.70;99.90
16301;DHT22;8258;51.020;4.248;2023-03-01T04:16:14;-0.70;99.90
16301;DHT22;8258;51.020;4.248;2023-03-01T04:18:41;-0.80;99.90
16301;DHT22;8258;51.020;4.248;2023-03-01T04:21:08;-0.80;99.90
16301;DHT22;8258;51.020;4.248;2023-03-01T04:23:38;-0.80;99.90
16301;DHT22;8258;51.020;4.248;2023-03-01T04:26:07;-0.80;99.90
16301;DHT22;8258;51.020;4.248;2023-03-01T04:28:36;-0.90;99.90
16301;DHT22;8258;51.020;4.248;2023-03-01T04:31:06;-0.90;99.90
16301;DHT22;8258;51.020;4.248;2023-03-01T04:33:38;-0.90;99.90
16301;DHT22;8258;51.020;4.248;2023-03-01T04:36:06;-0.90;99.90
16301;DHT22;8258;51.020;4.248;2023-03-01T04:38:34;-1.00;99.90
16301;DHT22;8258;51.020;4.248;2023-03-01T04:41:04;-1.00;99.90
16301;DHT22;8258;51.020;4.248;2023-03-01T04:43:31;-1.00;99.90
16301;DHT22;8258;51.020;4.248;2023-03-01T04:46:03;-1.00;99.90
16301;DHT22;8258;51.020;4.248;2023-03-01T04:48:32;-1.00;99.90
16301;DHT22;8258;51.020;4.248;2023-03-01T04:50:59;-1.00;99.90
16301;DHT22;8258;51.020;4.248;2023-03-01T04:53:27;-1.10;99.90
16301;DHT22;8258;51.020;4.248;2023-03-01T04:55:54;-1.10;99.90
16301;DHT22;8258;51.020;4.248;2023-03-01T04:58:23;-1.10;99.90
16301;DHT22;8258;51.020;4.248;2023-03-01T05:00:50;-1.20;99.90
16301;DHT22;8258;51.020;4.248;2023-03-01T05:03:17;-1.20;99.90
16301;DHT22;8258;51.020;4.248;2023-03-01T05:05:45;-1.20;99.90
16301;DHT22;8258;51.020;4.248;2023-03-01T05:08:13;-1.20;99.90
16301;DHT22;8258;51.020;4.248;2023-03-01T05:10:44;-1.20;99.90
16301;DHT22;8258;51.020;4.248;2023-03-01T05:13:13;-1.20;99.90
16301;DHT22;8258;51.020;4.248;2023-03-01T05:15:46;-1.20;99.90
16301;DHT22;8258;51.020;4.248;2023-03-01T05:18:13;-1.20;99.90
16301;DHT22;8258;51.020;4.248;2023-03-01T05:20:40;-1.20;99.90
16301;DHT22;8258;51.020;4.248;2023-03-01T05:23:08;-1.20;99.90
16301;DHT22;8258;51.020;4.248;2023-03-01T05:25:35;-1.20;99.90
16301;DHT22;8258;51.020;4.248;2023-03-01T05:28:06;-1.30;99.90
16301;DHT22;8258;51.020;4.248;2023-03-01T05:30:35;-1.30;99.90
16301;DHT22;8258;51.020;4.248;2023-03-01T05:33:06;-1.30;99.90
16301;DHT22;8258;51.020;4.248;2023-03-01T05:35:39;-1.30;99.90
16301;DHT22;8258;51.020;4.248;2023-03-01T05:38:06;-1.40;99.90
16301;DHT22;8258;51.020;4.248;2023-03-01T05:40:34;-1.40;99.90
16301;DHT22;8258;51.020;4.248;2023-03-01T05:43:01;-1.40;99.90
16301;DHT22;8258;51.020;4.248;2023-03-01T05:45:31;-1.30;99.90
16301;DHT22;8258;51.020;4.248;2023-03-01T05:47:59;-1.40;99.90
16301;DHT22;8258;51.020;4.248;2023-03-01T05:50:29;-1.50;99.90
16301;DHT22;8258;51.020;4.248;2023-03-01T05:53:00;-1.50;99.90
16301;DHT22;8258;51.020;4.248;2023-03-01T05:55:29;-1.50;99.90
16301;DHT22;8258;51.020;4.248;2023-03-01T05:57:58;-1.50;99.90
16301;DHT22;8258;51.020;4.248;2023-03-01T06:00:26;-1.50;99.90
16301;DHT22;8258;51.020;4.248;2023-03-01T06:02:53;-1.60;99.90
16301;DHT22;8258;51.020;4.248;2023-03-01T06:05:21;-1.60;99.90
16301;DHT22;8258;51.020;4.248;2023-03-01T06:07:49;-1.70;99.90
16301;DHT22;8258;51.020;4.248;2023-03-01T06:10:17;-1.70;99.90
16301;DHT22;8258;51.020;4.248;2023-03-01T06:12:45;-1.60;99.90
16301;DHT22;8258;51.020;4.248;2023-03-01T06:15:14;-1.60;99.90
16301;DHT22;8258;51.020;4.248;2023-03-01T06:17:43;-1.50;99.90
16301;DHT22;8258;51.020;4.248;2023-03-01T06:20:13;-1.50;99.90
16301;DHT22;8258;51.020;4.248;2023-03-01T06:22:41;-1.50;99.90
16301;DHT22;8258;51.020;4.248;2023-03-01T06:25:18;-1.50;99.90
16301;DHT22;8258;51.020;4.248;2023-03-01T06:27:45;-1.50;99.90
16301;DHT22;8258;51.020;4.248;2023-03-01T06:32:41;-1.50;99.90
16301;DHT22;8258;51.020;4.248;2023-03-01T06:35:09;-1.50;99.90
16301;DHT22;8258;51.020;4.248;2023-03-01T06:37:37;-1.40;99.90
16301;DHT22;8258;51.020;4.248;2023-03-01T06:40:05;-1.40;99.90
16301;DHT22;8258;51.020;4.248;2023-03-01T06:42:42;-1.40;99.90
16301;DHT22;8258;51.020;4.248;2023-03-01T06:45:10;-1.40;99.90
16301;DHT22;8258;51.020;4.248;2023-03-01T06:47:37;-1.40;99.90
16301;DHT22;8258;51.020;4.248;2023-03-01T06:50:04;-1.30;99.90
16301;DHT22;8258;51.020;4.248;2023-03-01T06:52:32;-1.30;99.90
16301;DHT22;8258;51.020;4.248;2023-03-01T06:54:59;-1.20;99.90
16301;DHT22;8258;51.020;4.248;2023-03-01T06:57:26;-0.80;99.90
16301;DHT22;8258;51.020;4.248;2023-03-01T06:59:55;0.00;99.90
16301;DHT22;8258;51.020;4.248;2023-03-01T07:02:22;0.90;99.90
16301;DHT22;8258;51.020;4.248;2023-03-01T07:04:49;1.70;99.90
16301;DHT22;8258;51.020;4.248;2023-03-01T07:07:17;2.50;99.90
16301;DHT22;8258;51.020;4.248;2023-03-01T07:09:44;2.80;99.90
16301;DHT22;8258;51.020;4.248;2023-03-01T07:12:11;3.30;99.90
16301;DHT22;8258;51.020;4.248;2023-03-01T07:14:38;3.60;99.90
16301;DHT22;8258;51.020;4.248;2023-03-01T07:17:07;4.00;99.90
16301;DHT22;8258;51.020;4.248;2023-03-01T07:19:34;3.80;99.90
16301;DHT22;8258;51.020;4.248;2023-03-01T07:22:03;3.80;99.90
16301;DHT22;8258;51.020;4.248;2023-03-01T07:24:33;4.10;99.90
16301;DHT22;8258;51.020;4.248;2023-03-01T07:27:00;4.50;99.90
16301;DHT22;8258;51.020;4.248;2023-03-01T07:29:27;5.10;99.90
16301;DHT22;8258;51.020;4.248;2023-03-01T07:31:55;5.40;99.90
16301;DHT22;8258;51.020;4.248;2023-03-01T07:34:23;5.80;99.90
16301;DHT22;8258;51.020;4.248;2023-03-01T07:36:50;6.10;99.90
16301;DHT22;8258;51.020;4.248;2023-03-01T07:39:19;6.50;99.90
16301;DHT22;8258;51.020;4.248;2023-03-01T07:41:48;6.50;99.90
16301;DHT22;8258;51.020;4.248;2023-03-01T07:44:15;6.70;99.90
16301;DHT22;8258;51.020;4.248;2023-03-01T07:46:43;6.60;99.90
16301;DHT22;8258;51.020;4.248;2023-03-01T07:49:10;6.90;99.90
16301;DHT22;8258;51.020;4.248;2023-03-01T07:51:38;7.10;99.90
16301;DHT22;8258;51.020;4.248;2023-03-01T07:54:05;7.10;99.90
16301;DHT22;8258;51.020;4.248;2023-03-01T07:56:32;7.30;99.40
16301;DHT22;8258;51.020;4.248;2023-03-01T07:58:59;7.10;99.40
16301;DHT22;8258;51.020;4.248;2023-03-01T08:01:26;7.10;99.90
16301;DHT22;8258;51.020;4.248;2023-03-01T08:03:53;7.20;99.50
16301;DHT22;8258;51.020;4.248;2023-03-01T08:06:20;7.50;98.60
16301;DHT22;8258;51.020;4.248;2023-03-01T08:08:48;7.90;97.00
16301;DHT22;8258;51.020;4.248;2023-03-01T08:11:15;7.90;97.40
16301;DHT22;8258;51.020;4.248;2023-03-01T08:13:43;7.90;97.80
16301;DHT22;8258;51.020;4.248;2023-03-01T08:16:11;8.50;95.90
16301;DHT22;8258;51.020;4.248;2023-03-01T08:18:38;8.70;95.20
16301;DHT22;8258;51.020;4.248;2023-03-01T08:21:07;9.10;94.80
16301;DHT22;8258;51.020;4.248;2023-03-01T08:23:34;9.30;94.00
16301;DHT22;8258;51.020;4.248;2023-03-01T08:26:08;9.80;92.00
16301;DHT22;8258;51.020;4.248;2023-03-01T08:28:35;10.00;91.10
16301;DHT22;8258;51.020;4.248;2023-03-01T08:31:03;10.10;89.40
16301;DHT22;8258;51.020;4.248;2023-03-01T08:33:39;10.00;87.00
16301;DHT22;8258;51.020;4.248;2023-03-01T08:36:06;9.70;88.00
16301;DHT22;8258;51.020;4.248;2023-03-01T08:38:34;9.90;87.60
16301;DHT22;8258;51.020;4.248;2023-03-01T08:41:01;10.20;87.10
16301;DHT22;8258;51.020;4.248;2023-03-01T08:43:30;10.50;85.70
16301;DHT22;8258;51.020;4.248;2023-03-01T08:45:57;11.00;82.80
16301;DHT22;8258;51.020;4.248;2023-03-01T08:48:25;10.90;79.40
16301;DHT22;8258;51.020;4.248;2023-03-01T08:50:52;10.60;79.40
16301;DHT22;8258;51.020;4.248;2023-03-01T08:53:19;10.80;77.90
16301;DHT22;8258;51.020;4.248;2023-03-01T08:55:46;10.60;76.20
16301;DHT22;8258;51.020;4.248;2023-03-01T08:58:13;10.70;77.30
16301;DHT22;8258;51.020;4.248;2023-03-01T09:00:41;10.90;78.80
16301;DHT22;8258;51.020;4.248;2023-03-01T09:03:08;11.00;79.10
16301;DHT22;8258;51.020;4.248;2023-03-01T09:05:35;11.70;76.00
16301;DHT22;8258;51.020;4.248;2023-03-01T09:08:02;12.00;72.20
16301;DHT22;8258;51.020;4.248;2023-03-01T09:10:29;12.00;71.30
16301;DHT22;8258;51.020;4.248;2023-03-01T09:12:56;12.10;68.00
16301;DHT22;8258;51.020;4.248;2023-03-01T09:15:23;12.00;70.00
16301;DHT22;8258;51.020;4.248;2023-03-01T09:17:51;12.10;66.80
16301;DHT22;8258;51.020;4.248;2023-03-01T09:20:18;11.60;67.20
16301;DHT22;8258;51.020;4.248;2023-03-01T09:22:45;11.80;67.60
16301;DHT22;8258;51.020;4.248;2023-03-01T09:25:13;12.20;66.40
16301;DHT22;8258;51.020;4.248;2023-03-01T09:27:40;12.70;62.30
16301;DHT22;8258;51.020;4.248;2023-03-01T09:30:08;12.40;61.20
16301;DHT22;8258;51.020;4.248;2023-03-01T09:32:36;12.20;61.10
16301;DHT22;8258;51.020;4.248;2023-03-01T09:35:06;12.20;62.80
16301;DHT22;8258;51.020;4.248;2023-03-01T09:37:35;12.50;60.20
16301;DHT22;8258;51.020;4.248;2023-03-01T09:40:04;12.90;60.30
16301;DHT22;8258;51.020;4.248;2023-03-01T09:42:33;12.90;57.60
16301;DHT22;8258;51.020;4.248;2023-03-01T09:45:03;12.90;58.60
16301;DHT22;8258;51.020;4.248;2023-03-01T09:47:33;12.60;58.60
16301;DHT22;8258;51.020;4.248;2023-03-01T09:50:13;12.70;57.80
16301;DHT22;8258;51.020;4.248;2023-03-01T09:52:44;12.80;58.50
16301;DHT22;8258;51.020;4.248;2023-03-01T09:55:16;13.00;55.70
16301;DHT22;8258;51.020;4.248;2023-03-01T09:57:48;12.60;57.90
16301;DHT22;8258;51.020;4.248;2023-03-01T10:00:27;12.50;57.80
16301;DHT22;8258;51.020;4.248;2023-03-01T10:03:02;12.70;57.50
16301;DHT22;8258;51.020;4.248;2023-03-01T10:05:48;12.60;57.10
16301;DHT22;8258;51.020;4.248;2023-03-01T10:08:36;13.00;54.60
16301;DHT22;8258;51.020;4.248;2023-03-01T10:11:19;12.50;55.90
16301;DHT22;8258;51.020;4.248;2023-03-01T10:13:50;12.00;56.10
16301;DHT22;8258;51.020;4.248;2023-03-01T10:16:23;12.40;57.20
16301;DHT22;8258;51.020;4.248;2023-03-01T10:18:55;12.70;55.20
16301;DHT22;8258;51.020;4.248;2023-03-01T10:21:26;13.10;53.50
16301;DHT22;8258;51.020;4.248;2023-03-01T10:23:55;13.80;52.20
16301;DHT22;8258;51.020;4.248;2023-03-01T10:26:41;13.70;52.90
16301;DHT22;8258;51.020;4.248;2023-03-01T10:29:12;13.80;52.00
16301;DHT22;8258;51.020;4.248;2023-03-01T10:31:42;14.70;50.60
16301;DHT22;8258;51.020;4.248;2023-03-01T10:34:15;15.30;48.90
16301;DHT22;8258;51.020;4.248;2023-03-01T10:36:48;15.10;47.70
16301;DHT22;8258;51.020;4.248;2023-03-01T10:39:18;14.10;47.40
16301;DHT22;8258;51.020;4.248;2023-03-01T10:41:56;13.10;49.90
16301;DHT22;8258;51.020;4.248;2023-03-01T10:44:42;13.20;52.20
16301;DHT22;8258;51.020;4.248;2023-03-01T10:47:18;13.80;50.40
16301;DHT22;8258;51.020;4.248;2023-03-01T10:49:59;13.60;50.00
16301;DHT22;8258;51.020;4.248;2023-03-01T10:52:31;14.50;48.50
16301;DHT22;8258;51.020;4.248;2023-03-01T10:55:00;14.80;47.40
16301;DHT22;8258;51.020;4.248;2023-03-01T10:57:34;14.50;46.00
16301;DHT22;8258;51.020;4.248;2023-03-01T11:00:21;14.00;48.50
16301;DHT22;8258;51.020;4.248;2023-03-01T11:02:51;14.20;46.80
16301;DHT22;8258;51.020;4.248;2023-03-01T11:05:22;14.20;46.00
16301;DHT22;8258;51.020;4.248;2023-03-01T11:07:53;14.10;45.40
16301;DHT22;8258;51.020;4.248;2023-03-01T11:10:24;14.60;44.90
16301;DHT22;8258;51.020;4.248;2023-03-01T11:12:52;14.20;47.00
16301;DHT22;8258;51.020;4.248;2023-03-01T11:15:25;14.50;46.40
16301;DHT22;8258;51.020;4.248;2023-03-01T11:17:53;15.30;44.50
16301;DHT22;8258;51.020;4.248;2023-03-01T11:20:27;15.20;41.70
16301;DHT22;8258;51.020;4.248;2023-03-01T11:23:00;14.40;45.00
16301;DHT22;8258;51.020;4.248;2023-03-01T11:25:31;15.10;42.20
16301;DHT22;8258;51.020;4.248;2023-03-01T11:28:02;15.20;43.20
16301;DHT22;8258;51.020;4.248;2023-03-01T11:30:33;14.50;44.20
16301;DHT22;8258;51.020;4.248;2023-03-01T11:33:11;15.10;42.20
16301;DHT22;8258;51.020;4.248;2023-03-01T11:35:44;15.40;41.00
16301;DHT22;8258;51.020;4.248;2023-03-01T11:38:21;15.90;41.00
16301;DHT22;8258;51.020;4.248;2023-03-01T11:40:53;16.40;40.90
16301;DHT22;8258;51.020;4.248;2023-03-01T11:43:29;17.20;38.90
16301;DHT22;8258;51.020;4.248;2023-03-01T11:46:20;17.00;36.30
16301;DHT22;8258;51.020;4.248;2023-03-01T11:48:58;16.00;38.10
16301;DHT22;8258;51.020;4.248;2023-03-01T11:51:41;15.40;38.00
16301;DHT22;8258;51.020;4.248;2023-03-01T11:54:21;15.90;37.60
16301;DHT22;8258;51.020;4.248;2023-03-01T11:56:55;16.30;36.70
16301;DHT22;8258;51.020;4.248;2023-03-01T11:59:48;16.30;35.80
16301;DHT22;8258;51.020;4.248;2023-03-01T12:02:47;16.20;37.80
16301;DHT22;8258;51.020;4.248;2023-03-01T12:08:15;16.70;36.60
16301;DHT22;8258;51.020;4.248;2023-03-01T12:10:52;17.00;33.10
16301;DHT22;8258;51.020;4.248;2023-03-01T12:13:47;16.30;34.20
16301;DHT22;8258;51.020;4.248;2023-03-01T12:16:35;16.10;38.00
16301;DHT22;8258;51.020;4.248;2023-03-01T12:19:33;16.30;36.20
16301;DHT22;8258;51.020;4.248;2023-03-01T12:22:13;16.20;36.80
16301;DHT22;8258;51.020;4.248;2023-03-01T12:25:04;16.90;36.10
16301;DHT22;8258;51.020;4.248;2023-03-01T12:27:55;17.20;34.40
16301;DHT22;8258;51.020;4.248;2023-03-01T12:30:34;16.90;35.30
16301;DHT22;8258;51.020;4.248;2023-03-01T12:33:13;17.20;32.00
16301;DHT22;8258;51.020;4.248;2023-03-01T12:36:14;17.10;33.80
16301;DHT22;8258;51.020;4.248;2023-03-01T12:38:49;17.20;33.90
16301;DHT22;8258;51.020;4.248;2023-03-01T12:41:38;17.50;32.40
16301;DHT22;8258;51.020;4.248;2023-03-01T12:44:39;17.60;32.30
16301;DHT22;8258;51.020;4.248;2023-03-01T12:47:20;17.60;32.20
16301;DHT22;8258;51.020;4.248;2023-03-01T12:49:52;18.10;32.30
16301;DHT22;8258;51.020;4.248;2023-03-01T12:52:35;18.00;30.30
16301;DHT22;8258;51.020;4.248;2023-03-01T12:55:08;17.50;30.80
16301;DHT22;8258;51.020;4.248;2023-03-01T12:57:47;17.50;31.60
16301;DHT22;8258;51.020;4.248;2023-03-01T13:00:26;17.30;31.80
16301;DHT22;8258;51.020;4.248;2023-03-01T13:02:59;17.70;30.60
16301;DHT22;8258;51.020;4.248;2023-03-01T13:05:37;17.60;30.60
16301;DHT22;8258;51.020;4.248;2023-03-01T13:08:13;17.70;31.20
16301;DHT22;8258;51.020;4.248;2023-03-01T13:10:47;17.20;31.20
16301;DHT22;8258;51.020;4.248;2023-03-01T13:13:20;16.70;32.10
16301;DHT22;8258;51.020;4.248;2023-03-01T13:15:49;17.70;30.40
16301;DHT22;8258;51.020;4.248;2023-03-01T13:18:31;17.60;30.70
16301;DHT22;8258;51.020;4.248;2023-03-01T13:21:00;17.60;30.70
16301;DHT22;8258;51.020;4.248;2023-03-01T13:23:30;17.70;29.70
16301;DHT22;8258;51.020;4.248;2023-03-01T13:26:11;18.30;30.40
16301;DHT22;8258;51.020;4.248;2023-03-01T13:28:59;18.80;29.90
16301;DHT22;8258;51.020;4.248;2023-03-01T13:32:01;19.10;28.90
16301;DHT22;8258;51.020;4.248;2023-03-01T13:34:54;19.20;28.50
16301;DHT22;8258;51.020;4.248;2023-03-01T13:37:27;19.20;29.30
16301;DHT22;8258;51.020;4.248;2023-03-01T13:39:59;18.80;29.40
16301;DHT22;8258;51.020;4.248;2023-03-01T13:42:39;19.20;28.90
16301;DHT22;8258;51.020;4.248;2023-03-01T13:45:17;18.10;28.80
16301;DHT22;8258;51.020;4.248;2023-03-01T13:47:49;18.00;29.50
16301;DHT22;8258;51.020;4.248;2023-03-01T13:50:19;18.00;29.10
16301;DHT22;8258;51.020;4.248;2023-03-01T13:52:52;18.10;29.10
16301;DHT22;8258;51.020;4.248;2023-03-01T13:55:23;17.70;29.40
16301;DHT22;8258;51.020;4.248;2023-03-01T13:57:53;17.80;29.30
16301;DHT22;8258;51.020;4.248;2023-03-01T14:00:30;17.40;30.00
16301;DHT22;8258;51.020;4.248;2023-03-01T14:03:09;17.50;30.30
16301;DHT22;8258;51.020;4.248;2023-03-01T14:05:37;17.80;29.40
16301;DHT22;8258;51.020;4.248;2023-03-01T14:08:04;17.90;28.80
16301;DHT22;8258;51.020;4.248;2023-03-01T14:10:40;17.50;28.70
16301;DHT22;8258;51.020;4.248;2023-03-01T14:13:20;17.30;29.80
16301;DHT22;8258;51.020;4.248;2023-03-01T14:16:06;17.50;29.90
16301;DHT22;8258;51.020;4.248;2023-03-01T14:18:42;18.20;28.40
16301;DHT22;8258;51.020;4.248;2023-03-01T14:21:14;17.80;29.20
16301;DHT22;8258;51.020;4.248;2023-03-01T14:23:41;17.60;28.90
16301;DHT22;8258;51.020;4.248;2023-03-01T14:26:09;17.30;28.40
16301;DHT22;8258;51.020;4.248;2023-03-01T14:28:38;17.20;29.80
16301;DHT22;8258;51.020;4.248;2023-03-01T14:31:31;17.70;29.10
16301;DHT22;8258;51.020;4.248;2023-03-01T14:33:59;17.60;29.30
16301;DHT22;8258;51.020;4.248;2023-03-01T14:36:28;17.40;27.80
16301;DHT22;8258;51.020;4.248;2023-03-01T14:38:56;17.10;28.40
16301;DHT22;8258;51.020;4.248;2023-03-01T14:41:27;17.00;28.30
16301;DHT22;8258;51.020;4.248;2023-03-01T14:43:57;17.40;28.50
16301;DHT22;8258;51.020;4.248;2023-03-01T14:46:28;17.60;27.50
16301;DHT22;8258;51.020;4.248;2023-03-01T14:49:03;17.90;28.30
16301;DHT22;8258;51.020;4.248;2023-03-01T14:51:35;18.30;27.50
16301;DHT22;8258;51.020;4.248;2023-03-01T14:54:02;18.40;27.30
16301;DHT22;8258;51.020;4.248;2023-03-01T14:56:43;17.90;28.00
16301;DHT22;8258;51.020;4.248;2023-03-01T14:59:11;18.70;27.60
16301;DHT22;8258;51.020;4.248;2023-03-01T15:01:39;18.30;27.30
16301;DHT22;8258;51.020;4.248;2023-03-01T15:04:11;18.10;27.50
16301;DHT22;8258;51.020;4.248;2023-03-01T15:06:39;18.00;28.30
16301;DHT22;8258;51.020;4.248;2023-03-01T15:09:11;18.30;27.80
16301;DHT22;8258;51.020;4.248;2023-03-01T15:11:38;18.60;27.50
16301;DHT22;8258;51.020;4.248;2023-03-01T15:14:28;18.50;27.20
16301;DHT22;8258;51.020;4.248;2023-03-01T15:16:56;18.30;27.10
16301;DHT22;8258;51.020;4.248;2023-03-01T15:19:26;18.90;27.40
16301;DHT22;8258;51.020;4.248;2023-03-01T15:21:55;19.10;26.10
16301;DHT22;8258;51.020;4.248;2023-03-01T15:24:25;19.00;25.90
16301;DHT22;8258;51.020;4.248;2023-03-01T15:26:57;18.00;26.60
16301;DHT22;8258;51.020;4.248;2023-03-01T15:29:29;16.70;27.90
16301;DHT22;8258;51.020;4.248;2023-03-01T15:31:58;16.70;28.60
16301;DHT22;8258;51.020;4.248;2023-03-01T15:34:28;17.20;28.50
16301;DHT22;8258;51.020;4.248;2023-03-01T15:36:57;16.50;28.30
16301;DHT22;8258;51.020;4.248;2023-03-01T15:39:38;16.00;28.90
16301;DHT22;8258;51.020;4.248;2023-03-01T15:42:08;15.60;29.40
16301;DHT22;8258;51.020;4.248;2023-03-01T15:44:38;16.30;29.20
16301;DHT22;8258;51.020;4.248;2023-03-01T15:47:25;16.50;29.30
16301;DHT22;8258;51.020;4.248;2023-03-01T15:49:54;15.90;28.40
16301;DHT22;8258;51.020;4.248;2023-03-01T15:52:25;15.70;29.90
16301;DHT22;8258;51.020;4.248;2023-03-01T15:54:56;15.50;29.60
16301;DHT22;8258;51.020;4.248;2023-03-01T15:57:23;15.20;29.70
16301;DHT22;8258;51.020;4.248;2023-03-01T15:59:50;15.10;30.00
16301;DHT22;8258;51.020;4.248;2023-03-01T16:02:17;14.80;31.20
16301;DHT22;8258;51.020;4.248;2023-03-01T16:04:46;14.50;31.40
16301;DHT22;8258;51.020;4.248;2023-03-01T16:07:15;14.40;30.80
16301;DHT22;8258;51.020;4.248;2023-03-01T16:09:42;13.90;31.60
16301;DHT22;8258;51.020;4.248;2023-03-01T16:12:13;12.80;33.30
16301;DHT22;8258;51.020;4.248;2023-03-01T16:14:41;12.40;34.80
16301;DHT22;8258;51.020;4.248;2023-03-01T16:17:08;12.10;35.00
16301;DHT22;8258;51.020;4.248;2023-03-01T16:19:37;11.90;37.00
16301;DHT22;8258;51.020;4.248;2023-03-01T16:22:04;11.90;36.90